sensor_id;sensor_type;location;lat;lon;timestamp;temperature;humidity
55083;DHT22;40978;52.850;6.506;2022-11-15T00:00:33;6.60;99.90
55083;DHT22;40978;52.850;6.506;2022-11-15T00:02:58;6.80;99.90
55083;DHT22;40978;52.850;6.506;2022-11-15T00:05:24;6.80;99.90
55083;DHT22;40978;52.850;6.506;2022-11-15T00:07:50;6.90;99.90
55083;DHT22;40978;52.850;6.506;2022-11-15T00:10:16;6.90;99.90
55083;DHT22;40978;52.850;6.506;2022-11-15T00:12:41;7.00;99.90
55083;DHT22;40978;52.850;6.506;2022-11-15T00:15:08;7.00;99.90
55083;DHT22;40978;52.850;6.506;2022-11-15T00:17:33;7.10;99.90
55083;DHT22;40978;52.850;6.506;2022-11-15T00:19:59;7.10;99.90
55083;DHT22;40978;52.850;6.506;2022-11-15T00:22:25;7.20;99.90
55083;DHT22;40978;52.850;6.506;2022-11-15T00:24:56;7.20;99.90
55083;DHT22;40978;52.850;6.506;2022-11-15T00:27:21;7.30;99.90
55083;DHT22;40978;52.850;6.506;2022-11-15T00:29:47;7.30;99.90
55083;DHT22;40978;52.850;6.506;2022-11-15T00:32:13;7.30;99.90
55083;DHT22;40978;52.850;6.506;2022-11-15T00:34:38;7.30;99.90
55083;DHT22;40978;52.850;6.506;2022-11-15T00:37:04;7.40;99.90
55083;DHT22;40978;52.850;6.506;2022-11-15T00:39:31;7.40;99.90
55083;DHT22;40978;52.850;6.506;2022-11-15T00:41:56;7.40;99.90
55083;DHT22;40978;52.850;6.506;2022-11-15T00:44:22;7.50;99.90
55083;DHT22;40978;52.850;6.506;2022-11-15T00:46:48;7.40;99.90
55083;DHT22;40978;52.850;6.506;2022-11-15T00:49:13;7.50;99.90
55083;DHT22;40978;52.850;6.506;2022-11-15T00:51:39;7.50;99.90
55083;DHT22;40978;52.850;6.506;2022-11-15T00:54:05;7.50;99.90
55083;DHT22;40978;52.850;6.506;2022-11-15T00:56:30;7.50;99.90
55083;DHT22;40978;52.850;6.506;2022-11-15T00:58:56;7.50;99.90
55083;DHT22;40978;52.850;6.506;2022-11-15T01:01:22;7.50;99.90
55083;DHT22;40978;52.850;6.506;2022-11-15T01:03:47;7.50;99.90
55083;DHT22;40978;52.850;6.506;2022-11-15T01:06:13;7.50;99.90
55083;DHT22;40978;52.850;6.506;2022-11-15T01:08:40;7.50;99.90
55083;DHT22;40978;52.850;6.506;2022-11-15T01:11:09;7.50;99.90
55083;DHT22;40978;52.850;6.506;2022-11-15T01:13:35;7.50;99.90
55083;DHT22;40978;52.850;6.506;2022-11-15T01:16:16;7.50;99.90
55083;DHT22;40978;52.850;6.506;2022-11-15T01:18:43;7.50;99.90
55083;DHT22;40978;52.850;6.506;2022-11-15T01:21:11;7.50;99.90
55083;DHT22;40978;52.850;6.506;2022-11-15T01:23:37;7.50;99.90
55083;DHT22;40978;52.850;6.506;2022-11-15T01:26:04;7.50;99.90
55083;DHT22;40978;52.850;6.506;2022-11-15T01:28:34;7.50;99.90
55083;DHT22;40978;52.850;6.506;2022-11-15T01:31:02;7.60;99.90
55083;DHT22;40978;52.850;6.506;2022-11-15T01:33:29;7.50;99.90
55083;DHT22;40978;52.850;6.506;2022-11-15T01:35:55;7.50;99.90
55083;DHT22;40978;52.850;6.506;2022-11-15T01:38:22;7.50;99.90
55083;DHT22;40978;52.850;6.506;2022-11-15T01:40:48;7.50;99.90
55083;DHT22;40978;52.850;6.506;2022-11-15T01:43:26;7.50;99.90
55083;DHT22;40978;52.850;6.506;2022-11-15T01:48:50;7.60;99.90
55083;DHT22;40978;52.850;6.506;2022-11-15T01:51:18;7.50;99.90
55083;DHT22;40978;52.850;6.506;2022-11-15T01:53:48;7.60;99.90
55083;DHT22;40978;52.850;6.506;2022-11-15T01:56:18;7.60;99.90
55083;DHT22;40978;52.850;6.506;2022-11-15T01:58:45;7.60;99.90
55083;DHT22;40978;52.850;6.506;2022-11-15T02:01:13;7.60;99.90
55083;DHT22;40978;52.850;6.506;2022-11-15T02:03:52;7.60;99.90
55083;DHT22;40978;52.850;6.506;2022-11-15T02:06:21;7.60;99.90
55083;DHT22;40978;52.850;6.506;2022-11-15T02:08:47;7.70;99.90
55083;DHT22;40978;52.850;6.506;2022-11-15T02:11:13;7.60;99.90
55083;DHT22;40978;52.850;6.506;2022-11-15T02:13:39;7.60;99.90
55083;DHT22;40978;52.850;6.506;2022-11-15T02:18:52;7.70;99.90
55083;DHT22;40978;52.850;6.506;2022-11-15T02:21:35;7.70;99.90
55083;DHT22;40978;52.850;6.506;2022-11-15T02:24:37;7.70;99.90
55083;DHT22;40978;52.850;6.506;2022-11-15T02:32:56;7.80;99.90
55083;DHT22;40978;52.850;6.506;2022-11-15T02:37:56;7.70;99.90
55083;DHT22;40978;52.850;6.506;2022-11-15T02:40:33;7.80;99.90
55083;DHT22;40978;52.850;6.506;2022-11-15T02:43:04;7.80;99.90
55083;DHT22;40978;52.850;6.506;2022-11-15T02:45:56;7.80;99.90
55083;DHT22;40978;52.850;6.506;2022-11-15T02:48:24;7.80;99.90
55083;DHT22;40978;52.850;6.506;2022-11-15T02:50:51;7.80;99.90
55083;DHT22;40978;52.850;6.506;2022-11-15T02:53:17;7.80;99.90
55083;DHT22;40978;52.850;6.506;2022-11-15T02:55:51;7.80;99.90
55083;DHT22;40978;52.850;6.506;2022-11-15T03:04:22;7.90;99.90
55083;DHT22;40978;52.850;6.506;2022-11-15T03:07:05;7.90;99.90
55083;DHT22;40978;52.850;6.506;2022-11-15T03:09:59;8.00;99.90
55083;DHT22;40978;52.850;6.506;2022-11-15T03:12:49;8.00;99.90
55083;DHT22;40978;52.850;6.506;2022-11-15T03:17:55;7.90;99.90
55083;DHT22;40978;52.850;6.506;2022-11-15T03:20:25;8.00;99.90
55083;DHT22;40978;52.850;6.506;2022-11-15T03:22:54;8.00;99.90
55083;DHT22;40978;52.850;6.506;2022-11-15T03:25:23;8.00;99.90
55083;DHT22;40978;52.850;6.506;2022-11-15T03:27:54;8.10;99.90
55083;DHT22;40978;52.850;6.506;2022-11-15T03:30:21;8.10;99.90
55083;DHT22;40978;52.850;6.506;2022-11-15T03:32:53;8.10;99.90
55083;DHT22;40978;52.850;6.506;2022-11-15T03:35:25;8.10;99.90
55083;DHT22;40978;52.850;6.506;2022-11-15T03:38:13;8.20;99.90
55083;DHT22;40978;52.850;6.506;2022-11-15T03:40:42;8.20;99.90
55083;DHT22;40978;52.850;6.506;2022-11-15T03:45:57;8.20;99.90
55083;DHT22;40978;52.850;6.506;2022-11-15T03:48:27;8.30;99.90
55083;DHT22;40978;52.850;6.506;2022-11-15T03:50:56;8.30;99.90
55083;DHT22;40978;52.850;6.506;2022-11-15T03:53:22;8.30;99.90
55083;DHT22;40978;52.850;6.506;2022-11-15T03:55:47;8.30;99.90
55083;DHT22;40978;52.850;6.506;2022-11-15T03:58:13;8.30;99.90
55083;DHT22;40978;52.850;6.506;2022-11-15T04:00:39;8.30;99.90
55083;DHT22;40978;52.850;6.506;2022-11-15T04:03:04;8.40;99.90
55083;DHT22;40978;52.850;6.506;2022-11-15T04:05:30;8.40;99.90
55083;DHT22;40978;52.850;6.506;2022-11-15T04:07:56;8.40;99.90
55083;DHT22;40978;52.850;6.506;2022-11-15T04:10:21;8.40;99.90
55083;DHT22;40978;52.850;6.506;2022-11-15T04:12:47;8.40;99.90
55083;DHT22;40978;52.850;6.506;2022-11-15T04:15:19;8.40;99.90
55083;DHT22;40978;52.850;6.506;2022-11-15T04:17:49;8.50;99.90
55083;DHT22;40978;52.850;6.506;2022-11-15T04:20:18;8.60;99.90
55083;DHT22;40978;52.850;6.506;2022-11-15T04:25:56;8.50;99.90
55083;DHT22;40978;52.850;6.506;2022-11-15T04:28:23;8.60;99.90
55083;DHT22;40978;52.850;6.506;2022-11-15T04:30:49;8.60;99.90
55083;DHT22;40978;52.850;6.506;2022-11-15T04:33:15;8.60;99.90
55083;DHT22;40978;52.850;6.506;2022-11-15T04:35:42;8.60;99.90
55083;DHT22;40978;52.850;6.506;2022-11-15T04:38:09;8.60;99.90
55083;DHT22;40978;52.850;6.506;2022-11-15T04:40:36;8.70;99.90
55083;DHT22;40978;52.850;6.506;2022-11-15T04:43:02;8.70;99.90
55083;DHT22;40978;52.850;6.506;2022-11-15T04:45:28;8.70;99.90
55083;DHT22;40978;52.850;6.506;2022-11-15T04:47:53;8.70;99.90
55083;DHT22;40978;52.850;6.506;2022-11-15T04:50:19;8.70;99.90
55083;DHT22;40978;52.850;6.506;2022-11-15T04:52:51;8.80;99.90
55083;DHT22;40978;52.850;6.506;2022-11-15T04:55:17;8.80;99.90
55083;DHT22;40978;52.850;6.506;2022-11-15T04:57:43;8.80;99.90
55083;DHT22;40978;52.850;6.506;2022-11-15T05:00:12;8.90;99.90
55083;DHT22;40978;52.850;6.506;2022-11-15T05:02:38;8.90;99.90
55083;DHT22;40978;52.850;6.506;2022-11-15T05:05:23;8.90;99.90
55083;DHT22;40978;52.850;6.506;2022-11-15T05:07:50;9.00;99.90
55083;DHT22;40978;52.850;6.506;2022-11-15T05:10:15;9.00;99.90
55083;DHT22;40978;52.850;6.506;2022-11-15T05:12:41;9.10;99.90
55083;DHT22;40978;52.850;6.506;2022-11-15T05:15:07;9.10;99.90
55083;DHT22;40978;52.850;6.506;2022-11-15T05:17:33;9.20;99.90
55083;DHT22;40978;52.850;6.506;2022-11-15T05:19:59;9.20;99.90
55083;DHT22;40978;52.850;6.506;2022-11-15T05:22:25;9.20;99.90
55083;DHT22;40978;52.850;6.506;2022-11-15T05:24:50;9.30;99.90
55083;DHT22;40978;52.850;6.506;2022-11-15T05:27:16;9.30;99.90
55083;DHT22;40978;52.850;6.506;2022-11-15T05:29:42;9.40;99.90
55083;DHT22;40978;52.850;6.506;2022-11-15T05:32:09;9.40;99.90
55083;DHT22;40978;52.850;6.506;2022-11-15T05:34:35;9.40;99.90
55083;DHT22;40978;52.850;6.506;2022-11-15T05:37:01;9.40;99.90
55083;DHT22;40978;52.850;6.506;2022-11-15T05:39:28;9.50;99.90
55083;DHT22;40978;52.850;6.506;2022-11-15T05:42:02;9.50;99.90
55083;DHT22;40978;52.850;6.506;2022-11-15T05:44:31;9.50;99.90
55083;DHT22;40978;52.850;6.506;2022-11-15T05:46:58;9.50;99.90
55083;DHT22;40978;52.850;6.506;2022-11-15T05:49:26;9.50;99.90
55083;DHT22;40978;52.850;6.506;2022-11-15T05:51:54;9.60;99.90
55083;DHT22;40978;52.850;6.506;2022-11-15T05:54:21;9.60;99.90
55083;DHT22;40978;52.850;6.506;2022-11-15T05:56:48;9.60;99.90
55083;DHT22;40978;52.850;6.506;2022-11-15T05:59:14;9.60;99.90
55083;DHT22;40978;52.850;6.506;2022-11-15T06:01:40;9.70;99.90
55083;DHT22;40978;52.850;6.506;2022-11-15T06:04:06;9.70;99.90
55083;DHT22;40978;52.850;6.506;2022-11-15T06:06:32;9.70;99.90
55083;DHT22;40978;52.850;6.506;2022-11-15T06:08:58;9.80;99.90
55083;DHT22;40978;52.850;6.506;2022-11-15T06:11:23;9.80;99.90
55083;DHT22;40978;52.850;6.506;2022-11-15T06:13:49;9.80;99.90
55083;DHT22;40978;52.850;6.506;2022-11-15T06:16:15;9.80;99.90
55083;DHT22;40978;52.850;6.506;2022-11-15T06:18:40;9.90;99.90
55083;DHT22;40978;52.850;6.506;2022-11-15T06:21:06;9.90;99.90
55083;DHT22;40978;52.850;6.506;2022-11-15T06:23:33;10.00;99.90
55083;DHT22;40978;52.850;6.506;2022-11-15T06:26:00;10.00;99.90
55083;DHT22;40978;52.850;6.506;2022-11-15T06:28:30;10.00;99.90
55083;DHT22;40978;52.850;6.506;2022-11-15T06:30:56;10.10;99.90
55083;DHT22;40978;52.850;6.506;2022-11-15T06:33:22;10.10;99.90
55083;DHT22;40978;52.850;6.506;2022-11-15T06:35:47;10.10;99.90
55083;DHT22;40978;52.850;6.506;2022-11-15T06:38:13;10.10;99.90
55083;DHT22;40978;52.850;6.506;2022-11-15T06:40:39;10.20;99.90
55083;DHT22;40978;52.850;6.506;2022-11-15T06:43:06;10.20;99.90
55083;DHT22;40978;52.850;6.506;2022-11-15T06:45:32;10.20;99.90
55083;DHT22;40978;52.850;6.506;2022-11-15T06:47:58;10.20;99.90
55083;DHT22;40978;52.850;6.506;2022-11-15T06:50:24;10.20;99.90
55083;DHT22;40978;52.850;6.506;2022-11-15T06:52:50;10.30;99.90
55083;DHT22;40978;52.850;6.506;2022-11-15T06:55:16;10.30;99.90
55083;DHT22;40978;52.850;6.506;2022-11-15T06:57:52;10.30;99.90
55083;DHT22;40978;52.850;6.506;2022-11-15T07:00:19;10.30;99.90
55083;DHT22;40978;52.850;6.506;2022-11-15T07:02:45;10.30;99.90
55083;DHT22;40978;52.850;6.506;2022-11-15T07:05:12;10.40;99.90
55083;DHT22;40978;52.850;6.506;2022-11-15T07:07:38;10.40;99.90
55083;DHT22;40978;52.850;6.506;2022-11-15T07:10:04;10.40;99.90
55083;DHT22;40978;52.850;6.506;2022-11-15T07:12:30;10.40;99.90
55083;DHT22;40978;52.850;6.506;2022-11-15T07:14:56;10.50;99.90
55083;DHT22;40978;52.850;6.506;2022-11-15T07:17:22;10.50;99.90
55083;DHT22;40978;52.850;6.506;2022-11-15T07:19:47;10.50;99.90
55083;DHT22;40978;52.850;6.506;2022-11-15T07:22:13;10.50;99.90
55083;DHT22;40978;52.850;6.506;2022-11-15T07:24:39;10.50;99.90
55083;DHT22;40978;52.850;6.506;2022-11-15T07:27:04;10.50;99.90
55083;DHT22;40978;52.850;6.506;2022-11-15T07:29:30;10.60;99.90
55083;DHT22;40978;52.850;6.506;2022-11-15T07:31:56;10.60;99.90
55083;DHT22;40978;52.850;6.506;2022-11-15T07:34:21;10.60;99.90
55083;DHT22;40978;52.850;6.506;2022-11-15T07:36:47;10.60;99.90
55083;DHT22;40978;52.850;6.506;2022-11-15T07:39:13;10.60;99.90
55083;DHT22;40978;52.850;6.506;2022-11-15T07:41:39;10.60;99.90
55083;DHT22;40978;52.850;6.506;2022-11-15T07:44:05;10.70;99.90
55083;DHT22;40978;52.850;6.506;2022-11-15T07:46:31;10.70;99.90
55083;DHT22;40978;52.850;6.506;2022-11-15T07:48:57;10.70;99.90
55083;DHT22;40978;52.850;6.506;2022-11-15T07:51:23;10.80;99.90
55083;DHT22;40978;52.850;6.506;2022-11-15T07:53:48;10.80;99.90
55083;DHT22;40978;52.850;6.506;2022-11-15T07:56:14;10.80;99.90
55083;DHT22;40978;52.850;6.506;2022-11-15T07:58:40;10.80;99.90
55083;DHT22;40978;52.850;6.506;2022-11-15T08:01:07;10.80;99.90
55083;DHT22;40978;52.850;6.506;2022-11-15T08:03:34;10.90;99.90
55083;DHT22;40978;52.850;6.506;2022-11-15T08:05:59;10.90;99.90
55083;DHT22;40978;52.850;6.506;2022-11-15T08:08:25;10.90;99.90
55083;DHT22;40978;52.850;6.506;2022-11-15T08:10:51;10.90;99.90
55083;DHT22;40978;52.850;6.506;2022-11-15T08:13:17;11.00;99.90
55083;DHT22;40978;52.850;6.506;2022-11-15T08:15:42;11.00;99.90
55083;DHT22;40978;52.850;6.506;2022-11-15T08:18:14;11.00;99.90
55083;DHT22;40978;52.850;6.506;2022-11-15T08:20:40;11.00;99.90
55083;DHT22;40978;52.850;6.506;2022-11-15T08:23:07;11.10;99.90
55083;DHT22;40978;52.850;6.506;2022-11-15T08:25:34;11.10;99.90
55083;DHT22;40978;52.850;6.506;2022-11-15T08:28:02;11.10;99.90
55083;DHT22;40978;52.850;6.506;2022-11-15T08:30:28;11.10;99.90
55083;DHT22;40978;52.850;6.506;2022-11-15T08:32:55;11.20;99.90
55083;DHT22;40978;52.850;6.506;2022-11-15T08:35:21;11.20;99.90
55083;DHT22;40978;52.850;6.506;2022-11-15T08:37:47;11.20;99.90
55083;DHT22;40978;52.850;6.506;2022-11-15T08:40:13;11.30;99.90
55083;DHT22;40978;52.850;6.506;2022-11-15T08:42:39;11.30;99.90
55083;DHT22;40978;52.850;6.506;2022-11-15T08:45:06;11.30;99.90
55083;DHT22;40978;52.850;6.506;2022-11-15T08:47:32;11.30;99.90
55083;DHT22;40978;52.850;6.506;2022-11-15T08:49:58;11.30;99.90
55083;DHT22;40978;52.850;6.506;2022-11-15T08:52:24;11.40;99.90
55083;DHT22;40978;52.850;6.506;2022-11-15T08:54:50;11.40;99.90
55083;DHT22;40978;52.850;6.506;2022-11-15T08:57:15;11.40;99.90
55083;DHT22;40978;52.850;6.506;2022-11-15T08:59:41;11.40;99.90
55083;DHT22;40978;52.850;6.506;2022-11-15T09:02:14;11.40;99.90
55083;DHT22;40978;52.850;6.506;2022-11-15T09:04:41;11.50;99.90
55083;DHT22;40978;52.850;6.506;2022-11-15T09:07:11;11.50;99.90
55083;DHT22;40978;52.850;6.506;2022-11-15T09:09:37;11.50;99.90
55083;DHT22;40978;52.850;6.506;2022-11-15T09:12:05;11.50;99.90
55083;DHT22;40978;52.850;6.506;2022-11-15T09:14:31;11.60;99.90
55083;DHT22;40978;52.850;6.506;2022-11-15T09:16:57;11.60;99.90
55083;DHT22;40978;52.850;6.506;2022-11-15T09:19:22;11.60;99.90
55083;DHT22;40978;52.850;6.506;2022-11-15T09:21:48;11.60;99.90
55083;DHT22;40978;52.850;6.506;2022-11-15T09:24:14;11.70;99.90
55083;DHT22;40978;52.850;6.506;2022-11-15T09:26:40;11.70;99.90
55083;DHT22;40978;52.850;6.506;2022-11-15T09:29:06;11.70;99.90
55083;DHT22;40978;52.850;6.506;2022-11-15T09:31:32;11.70;99.90
55083;DHT22;40978;52.850;6.506;2022-11-15T09:33:58;11.70;99.90
55083;DHT22;40978;52.850;6.506;2022-11-15T09:36:24;11.70;99.90
55083;DHT22;40978;52.850;6.506;2022-11-15T09:38:49;11.80;99.90
55083;DHT22;40978;52.850;6.506;2022-11-15T09:44:27;11.90;99.90
55083;DHT22;40978;52.850;6.506;2022-11-15T09:49:35;11.90;99.90
55083;DHT22;40978;52.850;6.506;2022-11-15T09:52:00;12.00;99.90
55083;DHT22;40978;52.850;6.506;2022-11-15T09:54:39;12.00;99.90
55083;DHT22;40978;52.850;6.506;2022-11-15T09:57:12;12.00;99.90
55083;DHT22;40978;52.850;6.506;2022-11-15T09:59:58;12.10;99.90
55083;DHT22;40978;52.850;6.506;2022-11-15T10:02:42;12.00;99.90
55083;DHT22;40978;52.850;6.506;2022-11-15T10:05:16;12.10;99.90
55083;DHT22;40978;52.850;6.506;2022-11-15T10:12:48;12.10;99.90
55083;DHT22;40978;52.850;6.506;2022-11-15T10:15:16;12.10;99.90
55083;DHT22;40978;52.850;6.506;2022-11-15T10:20:40;12.20;99.90
55083;DHT22;40978;52.850;6.506;2022-11-15T10:23:14;12.20;99.90
55083;DHT22;40978;52.850;6.506;2022-11-15T10:25:41;12.30;99.90
55083;DHT22;40978;52.850;6.506;2022-11-15T10:28:17;12.30;99.90
55083;DHT22;40978;52.850;6.506;2022-11-15T10:30:49;12.40;99.90
55083;DHT22;40978;52.850;6.506;2022-11-15T10:33:31;12.50;99.90
55083;DHT22;40978;52.850;6.506;2022-11-15T10:41:22;12.60;99.90
55083;DHT22;40978;52.850;6.506;2022-11-15T10:46:33;12.60;99.90
55083;DHT22;40978;52.850;6.506;2022-11-15T10:49:17;12.60;99.90
55083;DHT22;40978;52.850;6.506;2022-11-15T10:51:53;12.80;99.90
55083;DHT22;40978;52.850;6.506;2022-11-15T10:54:36;12.90;99.90
55083;DHT22;40978;52.850;6.506;2022-11-15T10:57:18;13.20;99.90
55083;DHT22;40978;52.850;6.506;2022-11-15T10:59:53;13.40;99.90
55083;DHT22;40978;52.850;6.506;2022-11-15T11:03:34;13.50;99.90
55083;DHT22;40978;52.850;6.506;2022-11-15T11:05:35;13.60;99.90
55083;DHT22;40978;52.850;6.506;2022-11-15T11:08:21;13.60;99.90
55083;DHT22;40978;52.850;6.506;2022-11-15T11:11:01;13.60;99.90
55083;DHT22;40978;52.850;6.506;2022-11-15T11:16:14;13.60;99.90
55083;DHT22;40978;52.850;6.506;2022-11-15T11:19:10;13.50;99.90
55083;DHT22;40978;52.850;6.506;2022-11-15T11:21:49;13.50;99.90
55083;DHT22;40978;52.850;6.506;2022-11-15T11:27:24;13.40;99.90
55083;DHT22;40978;52.850;6.506;2022-11-15T11:37:50;13.30;99.90
55083;DHT22;40978;52.850;6.506;2022-11-15T11:51:07;12.80;99.90
55083;DHT22;40978;52.850;6.506;2022-11-15T11:53:43;12.80;99.90
55083;DHT22;40978;52.850;6.506;2022-11-15T11:56:29;12.80;99.90
55083;DHT22;40978;52.850;6.506;2022-11-15T11:59:03;12.80;99.90
55083;DHT22;40978;52.850;6.506;2022-11-15T12:01:34;12.80;99.90
55083;DHT22;40978;52.850;6.506;2022-11-15T12:04:20;12.70;99.90
55083;DHT22;40978;52.850;6.506;2022-11-15T12:06:54;12.80;99.90
55083;DHT22;40978;52.850;6.506;2022-11-15T12:12:24;12.80;99.90
55083;DHT22;40978;52.850;6.506;2022-11-15T12:14:53;12.90;99.90
55083;DHT22;40978;52.850;6.506;2022-11-15T12:17:24;13.00;99.90
55083;DHT22;40978;52.850;6.506;2022-11-15T12:20:37;13.00;99.90
55083;DHT22;40978;52.850;6.506;2022-11-15T12:22:42;13.10;99.90
55083;DHT22;40978;52.850;6.506;2022-11-15T12:30:50;13.30;99.90
55083;DHT22;40978;52.850;6.506;2022-11-15T12:33:45;13.40;99.90
55083;DHT22;40978;52.850;6.506;2022-11-15T12:43:51;13.50;99.90
55083;DHT22;40978;52.850;6.506;2022-11-15T12:48:59;13.50;99.90
55083;DHT22;40978;52.850;6.506;2022-11-15T13:17:47;13.30;99.90
55083;DHT22;40978;52.850;6.506;2022-11-15T13:23:06;13.20;99.90
55083;DHT22;40978;52.850;6.506;2022-11-15T13:35:50;13.20;99.90
55083;DHT22;40978;52.850;6.506;2022-11-15T13:38:26;13.20;99.90
55083;DHT22;40978;52.850;6.506;2022-11-15T13:40:53;13.20;99.90
55083;DHT22;40978;52.850;6.506;2022-11-15T13:46:12;12.90;99.90
55083;DHT22;40978;52.850;6.506;2022-11-15T13:48:42;12.90;99.90
55083;DHT22;40978;52.850;6.506;2022-11-15T13:53:55;12.70;99.90
55083;DHT22;40978;52.850;6.506;2022-11-15T13:56:22;12.60;99.90
55083;DHT22;40978;52.850;6.506;2022-11-15T13:58:48;12.50;99.90
55083;DHT22;40978;52.850;6.506;2022-11-15T14:01:17;12.50;99.90
55083;DHT22;40978;52.850;6.506;2022-11-15T14:03:52;12.40;99.90
55083;DHT22;40978;52.850;6.506;2022-11-15T14:06:22;12.40;99.90
55083;DHT22;40978;52.850;6.506;2022-11-15T14:09:28;12.30;99.90
55083;DHT22;40978;52.850;6.506;2022-11-15T14:11:53;12.20;99.90
55083;DHT22;40978;52.850;6.506;2022-11-15T14:14:24;12.20;99.90
55083;DHT22;40978;52.850;6.506;2022-11-15T14:16:52;12.10;99.90
55083;DHT22;40978;52.850;6.506;2022-11-15T14:24:36;11.90;99.90
55083;DHT22;40978;52.850;6.506;2022-11-15T14:27:25;11.80;99.90
55083;DHT22;40978;52.850;6.506;2022-11-15T14:29:52;11.80;99.90
55083;DHT22;40978;52.850;6.506;2022-11-15T14:32:22;11.70;99.90
55083;DHT22;40978;52.850;6.506;2022-11-15T14:34:49;11.60;99.90
55083;DHT22;40978;52.850;6.506;2022-11-15T14:37:23;11.60;99.90
55083;DHT22;40978;52.850;6.506;2022-11-15T14:39:49;11.50;99.90
55083;DHT22;40978;52.850;6.506;2022-11-15T14:42:16;11.50;99.90
55083;DHT22;40978;52.850;6.506;2022-11-15T14:44:42;11.50;99.90
55083;DHT22;40978;52.850;6.506;2022-11-15T14:47:07;11.50;99.90
55083;DHT22;40978;52.850;6.506;2022-11-15T14:49:33;11.40;99.90
55083;DHT22;40978;52.850;6.506;2022-11-15T14:51:59;11.40;99.90
55083;DHT22;40978;52.850;6.506;2022-11-15T14:54:24;11.40;99.90
55083;DHT22;40978;52.850;6.506;2022-11-15T14:56:50;11.50;99.90
55083;DHT22;40978;52.850;6.506;2022-11-15T14:59:16;11.50;99.90
55083;DHT22;40978;52.850;6.506;2022-11-15T15:01:41;11.50;99.90
55083;DHT22;40978;52.850;6.506;2022-11-15T15:04:10;11.50;99.90
55083;DHT22;40978;52.850;6.506;2022-11-15T15:06:35;11.50;99.90
55083;DHT22;40978;52.850;6.506;2022-11-15T15:09:01;11.50;99.90
55083;DHT22;40978;52.850;6.506;2022-11-15T15:11:30;11.50;99.90
55083;DHT22;40978;52.850;6.506;2022-11-15T15:13:56;11.50;99.90
55083;DHT22;40978;52.850;6.506;2022-11-15T15:16:24;11.50;99.90
55083;DHT22;40978;52.850;6.506;2022-11-15T15:18:50;11.50;99.90
55083;DHT22;40978;52.850;6.506;2022-11-15T15:21:24;11.50;99.90
55083;DHT22;40978;52.850;6.506;2022-11-15T15:23:50;11.50;99.90
55083;DHT22;40978;52.850;6.506;2022-11-15T15:26:17;11.50;99.90
55083;DHT22;40978;52.850;6.506;2022-11-15T15:28:43;11.50;99.90
55083;DHT22;40978;52.850;6.506;2022-11-15T15:31:09;11.50;99.90
55083;DHT22;40978;52.850;6.506;2022-11-15T15:33:35;11.40;99.90
55083;DHT22;40978;52.850;6.506;2022-11-15T15:36:03;11.40;99.90
55083;DHT22;40978;52.850;6.506;2022-11-15T15:38:31;11.40;99.90
55083;DHT22;40978;52.850;6.506;2022-11-15T15:40:56;11.40;99.90
55083;DHT22;40978;52.850;6.506;2022-11-15T15:43:22;11.40;99.90
55083;DHT22;40978;52.850;6.506;2022-11-15T15:45:48;11.50;99.90
55083;DHT22;40978;52.850;6.506;2022-11-15T15:48:15;11.40;99.90
55083;DHT22;40978;52.850;6.506;2022-11-15T15:50:42;11.40;99.90
55083;DHT22;40978;52.850;6.506;2022-11-15T15:53:10;11.40;99.90
55083;DHT22;40978;52.850;6.506;2022-11-15T15:55:36;11.40;99.90
55083;DHT22;40978;52.850;6.506;2022-11-15T15:58:03;11.30;99.90
55083;DHT22;40978;52.850;6.506;2022-11-15T16:00:28;11.30;99.90
55083;DHT22;40978;52.850;6.506;2022-11-15T16:02:54;11.20;99.90
55083;DHT22;40978;52.850;6.506;2022-11-15T16:05:21;11.20;99.90
55083;DHT22;40978;52.850;6.506;2022-11-15T16:07:47;11.20;99.90
55083;DHT22;40978;52.850;6.506;2022-11-15T16:12:45;11.10;99.90
55083;DHT22;40978;52.850;6.506;2022-11-15T16:15:11;11.00;99.90
55083;DHT22;40978;52.850;6.506;2022-11-15T16:17:47;11.00;99.90
55083;DHT22;40978;52.850;6.506;2022-11-15T16:20:40;11.00;99.90
55083;DHT22;40978;52.850;6.506;2022-11-15T16:23:13;11.00;99.90
55083;DHT22;40978;52.850;6.506;2022-11-15T16:26:00;11.00;99.90
55083;DHT22;40978;52.850;6.506;2022-11-15T16:28:31;11.00;99.90
55083;DHT22;40978;52.850;6.506;2022-11-15T16:31:10;11.00;99.90
55083;DHT22;40978;52.850;6.506;2022-11-15T16:33:37;11.00;99.90
55083;DHT22;40978;52.850;6.506;2022-11-15T16:38:40;11.10;99.90
55083;DHT22;40978;52.850;6.506;2022-11-15T16:41:06;11.20;99.90
55083;DHT22;40978;52.850;6.506;2022-11-15T16:43:32;11.20;99.90
55083;DHT22;40978;52.850;6.506;2022-11-15T16:45:57;11.10;99.90
55083;DHT22;40978;52.850;6.506;2022-11-15T16:48:25;11.10;99.90
55083;DHT22;40978;52.850;6.506;2022-11-15T16:50:58;11.20;99.90
55083;DHT22;40978;52.850;6.506;2022-11-15T16:53:25;11.20;99.90
55083;DHT22;40978;52.850;6.506;2022-11-15T16:55:51;11.20;99.90
55083;DHT22;40978;52.850;6.506;2022-11-15T16:58:17;11.20;99.90
55083;DHT22;40978;52.850;6.506;2022-11-15T17:00:43;11.20;99.90
55083;DHT22;40978;52.850;6.506;2022-11-15T17:03:09;11.20;99.90
55083;DHT22;40978;52.850;6.506;2022-11-15T17:05:34;11.20;99.90
55083;DHT22;40978;52.850;6.506;2022-11-15T17:08:00;11.20;99.90
55083;DHT22;40978;52.850;6.506;2022-11-15T17:10:26;11.30;99.90
55083;DHT22;40978;52.850;6.506;2022-11-15T17:12:53;11.30;99.90
55083;DHT22;40978;52.850;6.506;2022-11-15T17:15:19;11.30;99.90
55083;DHT22;40978;52.850;6.506;2022-11-15T17:17:53;11.30;99.90
55083;DHT22;40978;52.850;6.506;2022-11-15T17:20:22;11.30;99.90
55083;DHT22;40978;52.850;6.506;2022-11-15T17:22:48;11.30;99.90
55083;DHT22;40978;52.850;6.506;2022-11-15T17:25:15;11.30;99.90
55083;DHT22;40978;52.850;6.506;2022-11-15T17:27:40;11.30;99.90
55083;DHT22;40978;52.850;6.506;2022-11-15T17:30:07;11.30;99.90
55083;DHT22;40978;52.850;6.506;2022-11-15T17:32:35;11.40;99.90
55083;DHT22;40978;52.850;6.506;2022-11-15T17:35:04;11.40;99.90
55083;DHT22;40978;52.850;6.506;2022-11-15T17:37:34;11.40;99.90
55083;DHT22;40978;52.850;6.506;2022-11-15T17:40:00;11.50;99.90
55083;DHT22;40978;52.850;6.506;2022-11-15T17:42:26;11.50;99.90
55083;DHT22;40978;52.850;6.506;2022-11-15T17:44:52;11.50;99.90
55083;DHT22;40978;52.850;6.506;2022-11-15T17:47:17;11.50;99.90
55083;DHT22;40978;52.850;6.506;2022-11-15T17:49:43;11.50;99.90
55083;DHT22;40978;52.850;6.506;2022-11-15T17:52:09;11.50;99.90
55083;DHT22;40978;52.850;6.506;2022-11-15T17:54:35;11.50;99.90
55083;DHT22;40978;52.850;6.506;2022-11-15T17:57:00;11.40;99.90
55083;DHT22;40978;52.850;6.506;2022-11-15T17:59:26;11.50;99.90
55083;DHT22;40978;52.850;6.506;2022-11-15T18:01:52;11.50;99.90
55083;DHT22;40978;52.850;6.506;2022-11-15T18:04:18;11.40;99.90
55083;DHT22;40978;52.850;6.506;2022-11-15T18:06:45;11.40;99.90
55083;DHT22;40978;52.850;6.506;2022-11-15T18:09:11;11.50;99.90
55083;DHT22;40978;52.850;6.506;2022-11-15T18:11:39;11.50;99.90
55083;DHT22;40978;52.850;6.506;2022-11-15T18:14:13;11.50;99.90
55083;DHT22;40978;52.850;6.506;2022-11-15T18:16:40;11.50;99.90